Time;durP1;ratioP1;P1;durP2;ratioP2;P2;SDS_P1;SDS_P2;PMS_P1;PMS_P2;Temp;Humidity;BMP_temperature;BMP_pressure;BME280_temperature;BME280_humidity;BME280_pressure;Samples;Min_cycle;Max_cycle;Signal;HPM_P1;HPM_P2
2022/09/30 00:01:16;;;;;;;5.53;3.95;;;;;;;20.29;73.20;100002.97;5010149;28;20481;-69
2022/09/30 00:03:42;;;;;;;5.80;3.53;;;;;;;20.23;73.46;99999.53;5010572;28;20025;-70
2022/09/30 00:06:08;;;;;;;6.72;3.97;;;;;;;20.20;73.46;100008.31;5010613;28;20037;-68
2022/09/30 00:08:34;;;;;;;5.78;3.78;;;;;;;20.18;73.48;99996.97;5010361;28;20022;-71
2022/09/30 00:11:00;;;;;;;7.25;3.92;;;;;;;20.24;73.80;100003.88;5010171;28;20053;-70
2022/09/30 00:13:26;;;;;;;8.73;3.75;;;;;;;20.28;73.21;100016.09;5011212;28;20018;-71
2022/09/30 00:15:52;;;;;;;6.38;3.58;;;;;;;20.19;73.16;100003.94;5013839;28;20054;-68
2022/09/30 00:18:17;;;;;;;5.45;3.33;;;;;;;20.20;73.23;100017.03;5013800;28;20488;-68
2022/09/30 00:20:42;;;;;;;4.55;3.40;;;;;;;19.71;73.71;99944.09;5013679;28;20390;-71
2022/09/30 00:23:08;;;;;;;5.63;3.60;;;;;;;20.02;74.39;100001.47;5013670;28;20029;-70
2022/09/30 00:25:33;;;;;;;7.38;3.83;;;;;;;20.07;74.49;100018.03;5013553;28;20030;-74
2022/09/30 00:27:58;;;;;;;7.60;3.65;;;;;;;20.07;74.44;100023.25;5013555;28;20072;-70
2022/09/30 00:30:24;;;;;;;5.53;3.40;;;;;;;20.03;74.12;100019.78;5013810;28;20475;-68
2022/09/30 00:32:49;;;;;;;6.43;3.70;;;;;;;20.07;74.41;100028.50;5013771;28;20518;-68
2022/09/30 00:35:15;;;;;;;7.93;3.55;;;;;;;19.78;74.39;99992.06;5013412;28;20473;-70
2022/09/30 00:37:40;;;;;;;5.93;3.40;;;;;;;19.87;74.32;100008.59;5013502;28;20024;-68
2022/09/30 00:40:07;;;;;;;6.05;3.60;;;;;;;19.79;74.31;100019.97;5013393;28;20175;-71
2022/09/30 00:42:32;;;;;;;7.57;3.50;;;;;;;19.48;75.08;100015.00;5013481;28;20022;-70
2022/09/30 00:45:09;;;;;;;7.65;3.88;;;;;;;19.16;76.09;100018.69;5013567;28;20044;-67
2022/09/30 00:47:44;;;;;;;6.55;3.83;;;;;;;19.18;76.87;100033.50;5013419;28;20042;-69
2022/09/30 00:50:27;;;;;;;7.65;3.80;;;;;;;19.24;76.74;100033.47;5013273;28;20037;-69
2022/09/30 00:53:16;;;;;;;5.57;3.55;;;;;;;19.34;76.73;100033.38;5013274;28;20034;-70
2022/09/30 00:55:50;;;;;;;7.45;3.60;;;;;;;19.35;76.64;100042.97;5030400;28;20060;-70
2022/09/30 00:58:41;;;;;;;5.47;3.42;;;;;;;19.37;76.40;100034.25;5030335;28;20132;-70
2022/09/30 01:01:08;;;;;;;5.78;3.45;;;;;;;19.39;76.58;100021.16;4971517;28;20074;-69
2022/09/30 01:03:37;;;;;;;8.40;3.80;;;;;;;19.43;76.80;100025.50;4971543;28;20070;-68
2022/09/30 01:06:03;;;;;;;5.20;3.70;;;;;;;19.39;76.65;100021.16;4971576;28;20035;-68
2022/09/30 01:08:32;;;;;;;7.32;3.90;;;;;;;19.42;76.44;100028.13;4971617;28;20527;-68
2022/09/30 01:10:59;;;;;;;6.65;3.80;;;;;;;19.43;76.07;100033.34;4971678;28;20440;-71
2022/09/30 01:13:26;;;;;;;5.78;3.67;;;;;;;19.43;76.26;100032.47;4971272;28;20042;-70
2022/09/30 01:16:11;;;;;;;5.35;3.97;;;;;;;19.45;76.46;100042.06;4971314;28;20457;-71
2022/09/30 01:18:57;;;;;;;7.22;4.15;;;;;;;19.46;76.12;100022.84;4971412;28;20031;-68
2022/09/30 01:21:46;;;;;;;8.23;3.65;;;;;;;19.62;75.37;100044.56;4971317;28;20027;-71
2022/09/30 01:24:26;;;;;;;;;;;;;;;19.66;75.10;100046.25;4971715;28;20133;-68
2022/09/30 01:27:06;;;;;;;6.60;3.45;;;;;;;19.65;75.21;100044.53;4970704;28;19914;-71
2022/09/30 01:29:50;;;;;;;6.82;3.65;;;;;;;19.52;75.83;100043.75;4971105;28;20039;-74
2022/09/30 01:32:35;;;;;;;7.50;3.97;;;;;;;19.54;75.27;100041.13;4965205;28;20463;-72
2022/09/30 01:35:03;;;;;;;6.65;3.90;;;;;;;19.44;75.59;100049.91;4951696;29;20059;-69
2022/09/30 01:37:38;;;;;;;7.95;4.18;;;;;;;19.37;76.07;100055.19;4971055;28;20100;-68
2022/09/30 01:40:21;;;;;;;7.57;3.67;;;;;;;19.17;77.20;100057.06;5012171;28;20034;-72
2022/09/30 01:43:10;;;;;;;7.63;4.53;;;;;;;19.19;77.54;100066.63;5012299;28;20034;-68
2022/09/30 01:45:53;;;;;;;6.47;4.05;;;;;;;19.20;77.76;100068.38;5012303;28;20053;-71
2022/09/30 01:48:34;;;;;;;7.13;4.05;;;;;;;19.17;76.97;100057.91;5012066;28;20054;-72
2022/09/30 01:51:06;;;;;;;7.10;3.88;;;;;;;19.27;76.57;100069.22;5011880;28;20045;-71
2022/09/30 01:53:53;;;;;;;5.85;4.03;;;;;;;19.27;76.52;100065.72;5012002;28;20369;-68
2022/09/30 01:56:31;;;;;;;7.40;4.18;;;;;;;19.08;76.54;100031.81;5012005;28;20165;-73
2022/09/30 01:59:07;;;;;;;7.25;4.40;;;;;;;19.36;75.74;100068.28;5011885;28;20662;-70
2022/09/30 02:02:09;;;;;;;6.57;4.18;;;;;;;19.31;76.23;100075.28;5011741;28;20424;-70
2022/09/30 02:04:42;;;;;;;7.47;4.22;;;;;;;19.12;76.46;100038.75;5029085;28;20044;-69
2022/09/30 02:07:18;;;;;;;7.82;4.35;;;;;;;19.27;76.51;100073.59;5029012;28;20041;-73
2022/09/30 02:10:14;;;;;;;6.82;4.30;;;;;;;19.15;76.35;100077.13;5029136;28;20534;-72
2022/09/30 02:12:48;;;;;;;8.63;4.60;;;;;;;18.86;77.92;100089.41;4970124;28;20034;-68
2022/09/30 02:15:19;;;;;;;7.53;4.43;;;;;;;18.48;78.88;100058.13;4970046;28;20043;-69
2022/09/30 02:17:49;;;;;;;5.95;4.45;;;;;;;18.53;79.31;100095.56;4970127;28;20154;-72
2022/09/30 02:20:23;;;;;;;7.65;4.65;;;;;;;18.32;79.67;100096.47;4970068;28;20430;-69
2022/09/30 02:22:55;;;;;;;10.00;4.55;;;;;;;18.25;80.41;100095.63;4969974;28;20034;-70
2022/09/30 02:25:30;;;;;;;6.57;4.80;;;;;;;18.09;80.35;100056.44;4970130;28;20030;-69
2022/09/30 02:28:06;;;;;;;7.35;4.65;;;;;;;18.42;79.83;100086.00;4969989;28;20062;-69
2022/09/30 02:30:37;;;;;;;7.35;4.78;;;;;;;18.41;79.97;100083.41;4969921;28;20512;-74
2022/09/30 02:33:10;;;;;;;8.50;4.82;;;;;;;18.21;80.72;100052.94;4970026;28;20055;-71
2022/09/30 02:35:40;;;;;;;6.82;5.00;;;;;;;18.52;81.69;100089.50;4970102;28;20042;-71
2022/09/30 02:38:21;;;;;;;5.70;4.40;;;;;;;18.50;81.15;100101.69;4969082;28;20030;-72
2022/09/30 02:40:55;;;;;;;7.82;4.68;;;;;;;18.55;81.91;100094.69;4966542;28;20086;-71
2022/09/30 02:43:21;;;;;;;9.10;4.47;;;;;;;18.62;81.90;100097.31;4950487;29;20118;-72
2022/09/30 02:46:02;;;;;;;6.70;4.93;;;;;;;18.64;80.83;100109.53;4950543;29;20490;-71
2022/09/30 02:48:37;;;;;;;8.20;4.63;;;;;;;18.57;80.18;100115.63;4953817;28;20142;-72
2022/09/30 02:51:16;;;;;;;7.53;5.15;;;;;;;18.56;80.87;100124.34;5011025;28;20404;-71
2022/09/30 02:53:44;;;;;;;11.55;4.80;;;;;;;18.62;80.24;100118.22;5011053;28;20041;-69
2022/09/30 02:56:21;;;;;;;8.35;4.70;;;;;;;18.64;79.34;100119.09;5011087;28;20477;-74
2022/09/30 02:58:50;;;;;;;7.85;4.60;;;;;;;18.56;78.58;100106.91;5010807;28;20117;-68
2022/09/30 03:01:16;;;;;;;8.05;4.88;;;;;;;18.52;78.47;100106.94;5041109;28;20512;-69
2022/09/30 03:03:54;;;;;;;9.75;5.20;;;;;;;18.40;78.73;100105.19;5010686;28;20085;-71
2022/09/30 03:06:20;;;;;;;6.00;4.80;;;;;;;18.23;77.84;100108.69;4992564;28;20042;-68
2022/09/30 03:08:46;;;;;;;10.32;5.05;;;;;;;18.08;77.36;100114.78;5010969;28;20057;-69
2022/09/30 03:11:18;;;;;;;12.18;5.20;;;;;;;18.01;77.91;100115.66;5010316;28;20113;-71
2022/09/30 03:14:30;;;;;;;7.55;4.93;;;;;;;17.93;77.57;100118.22;5010136;28;20040;-72
2022/09/30 03:17:35;;;;;;;8.70;5.13;;;;;;;17.74;81.41;100124.28;5009652;28;20041;-72
2022/09/30 03:20:52;;;;;;;9.68;4.97;;;;;;;17.72;81.96;100120.78;5010179;28;20029;-69
2022/09/30 03:23:26;;;;;;;9.68;5.07;;;;;;;17.74;81.60;100119.91;5007532;28;20197;-68
2022/09/30 03:26:21;;;;;;;11.13;5.78;;;;;;;17.70;81.39;100105.13;5007899;28;20038;-71
2022/09/30 03:28:56;;;;;;;12.55;5.05;;;;;;;17.66;79.67;100105.09;5005842;28;20548;-70
2022/09/30 03:31:35;;;;;;;10.68;5.40;;;;;;;17.66;79.68;100105.09;5005940;28;20062;-70
2022/09/30 03:34:09;;;;;;;12.63;4.90;;;;;;;17.63;79.74;100100.75;5005414;28;20132;-71
2022/09/30 03:36:34;;;;;;;8.50;5.30;;;;;;;17.48;79.67;100059.84;5007898;28;20403;-70
2022/09/30 03:39:14;;;;;;;7.43;5.15;;;;;;;17.71;79.28;100100.78;5007604;28;20124;-72
2022/09/30 03:41:47;;;;;;;12.50;5.00;;;;;;;17.72;79.55;100099.91;5005336;28;20038;-70
2022/09/30 03:44:23;;;;;;;9.98;5.43;;;;;;;17.81;79.08;100110.38;5007863;28;20089;-70
2022/09/30 03:46:53;;;;;;;7.82;5.25;;;;;;;17.89;77.74;100118.22;5006914;28;20527;-69
2022/09/30 03:49:31;;;;;;;9.85;6.65;;;;;;;17.72;78.56;100111.22;5007022;28;20030;-69
2022/09/30 03:51:59;;;;;;;9.77;6.47;;;;;;;17.67;79.72;100119.91;5011057;28;20042;-69
2022/09/30 03:54:24;;;;;;;11.82;6.07;;;;;;;17.42;81.48;100127.66;4994829;28;20035;-69
2022/09/30 03:56:50;;;;;;;13.40;9.95;;;;;;;17.02;84.02;100137.94;5011419;28;20038;-69
2022/09/30 03:59:22;;;;;;;9.60;6.72;;;;;;;16.89;84.47;100130.03;5012303;28;20412;-69
2022/09/30 04:01:48;;;;;;;13.65;6.40;;;;;;;16.83;84.60;100137.81;5013216;28;20443;-70
2022/09/30 04:04:14;;;;;;;9.05;5.97;;;;;;;16.86;84.66;100135.22;5012673;28;20022;-73
2022/09/30 04:06:41;;;;;;;12.35;6.35;;;;;;;16.79;84.49;100128.22;5008962;28;20469;-73
2022/09/30 04:09:06;;;;;;;8.38;6.18;;;;;;;16.64;85.08;100123.78;5006594;28;20025;-74
2022/09/30 04:11:32;;;;;;;12.35;6.35;;;;;;;16.26;85.96;100096.63;5012770;28;20038;-73
2022/09/30 04:13:57;;;;;;;16.13;6.40;;;;;;;16.32;87.09;100140.94;5012650;28;20029;-71
2022/09/30 04:16:23;;;;;;;16.27;5.90;;;;;;;16.29;88.10;100142.66;5012903;28;20030;-71
2022/09/30 04:18:49;;;;;;;13.57;6.30;;;;;;;16.26;87.98;100151.31;5013015;28;20473;-71
2022/09/30 04:21:15;;;;;;;9.30;6.22;;;;;;;16.13;89.07;100155.53;5012705;28;20560;-71
2022/09/30 04:23:43;;;;;;;9.27;6.22;;;;;;;16.08;88.97;100158.97;5007446;28;20105;-72
2022/09/30 04:26:14;;;;;;;12.13;5.63;;;;;;;16.06;89.36;100163.28;5011718;28;20026;-73
2022/09/30 04:28:40;;;;;;;9.63;5.95;;;;;;;16.10;89.38;100165.94;5007813;28;20022;-70
2022/09/30 04:31:06;;;;;;;9.93;6.20;;;;;;;16.09;88.97;100150.28;5028011;28;20036;-73
2022/09/30 04:33:31;;;;;;;15.38;6.43;;;;;;;16.32;88.45;100158.28;5012569;28;20026;-70
2022/09/30 04:35:58;;;;;;;8.90;5.90;;;;;;;16.47;87.54;100166.25;5013197;28;20037;-70
2022/09/30 04:38:25;;;;;;;10.30;5.88;;;;;;;16.53;86.68;100168.00;5013047;28;20117;-72
2022/09/30 04:40:51;;;;;;;18.58;6.93;;;;;;;16.41;86.43;100157.50;5013214;28;20407;-70
2022/09/30 04:43:18;;;;;;;15.95;6.47;;;;;;;16.39;87.46;100178.34;5013179;28;20030;-73
2022/09/30 04:45:47;;;;;;;10.07;6.22;;;;;;;16.41;86.98;100176.63;5013114;28;20030;-70
2022/09/30 04:48:13;;;;;;;17.45;6.28;;;;;;;16.37;86.68;100164.41;5013071;28;20566;-73
2022/09/30 04:50:39;;;;;;;12.23;6.30;;;;;;;16.29;87.81;100174.78;5013128;28;20403;-74
2022/09/30 04:53:05;;;;;;;11.52;5.70;;;;;;;16.21;88.42;100173.81;5012892;28;20113;-72
2022/09/30 04:55:31;;;;;;;15.32;6.28;;;;;;;16.21;87.33;100154.72;5012997;28;20038;-75
2022/09/30 04:57:57;;;;;;;14.88;6.57;;;;;;;16.43;87.55;100179.22;5012927;28;20034;-70
2022/09/30 05:00:23;;;;;;;12.18;6.57;;;;;;;16.41;87.30;100155.78;5011676;28;20649;-73
2022/09/30 05:02:49;;;;;;;17.67;6.75;;;;;;;16.59;87.10;100173.28;5012775;28;20033;-73
2022/09/30 05:05:16;;;;;;;15.98;6.53;;;;;;;16.56;87.17;100181.09;5012654;28;20022;-73
2022/09/30 05:07:42;;;;;;;14.63;6.22;;;;;;;16.49;88.95;100190.56;5012730;28;20124;-73
2022/09/30 05:10:12;;;;;;;10.77;6.13;;;;;;;16.42;90.39;100198.31;5013082;28;20528;-70
2022/09/30 05:12:41;;;;;;;12.15;6.80;;;;;;;16.45;92.11;100208.78;5012884;28;20034;-70
2022/09/30 05:15:08;;;;;;;10.30;6.43;;;;;;;16.36;92.16;100157.44;5011893;28;20030;-70
2022/09/30 05:17:34;;;;;;;13.25;6.40;;;;;;;16.87;91.61;100212.56;5043153;28;20117;-70
2022/09/30 05:19:59;;;;;;;9.50;6.50;;;;;;;17.10;90.47;100206.69;5012564;28;20180;-75
2022/09/30 05:22:26;;;;;;;8.13;5.05;;;;;;;17.35;90.34;100209.44;5012267;28;20567;-74
2022/09/30 05:24:53;;;;;;;9.88;5.85;;;;;;;17.53;89.33;100217.31;4993793;28;20053;-71
2022/09/30 05:27:19;;;;;;;6.78;4.75;;;;;;;17.67;87.46;100193.00;5012543;28;20033;-75
2022/09/30 05:29:45;;;;;;;9.18;5.13;;;;;;;17.80;85.49;100200.03;5012327;28;20030;-71
2022/09/30 05:32:10;;;;;;;7.85;5.13;;;;;;;17.88;85.73;100208.75;5012346;28;20497;-70
2022/09/30 05:34:37;;;;;;;9.20;5.20;;;;;;;17.95;85.50;100207.91;5012139;28;20037;-76
2022/09/30 05:37:03;;;;;;;8.13;4.55;;;;;;;17.82;85.22;100185.25;5012063;28;20022;-77
2022/09/30 05:39:29;;;;;;;9.60;5.05;;;;;;;18.13;84.42;100206.25;5011960;28;20472;-70
2022/09/30 05:41:58;;;;;;;11.57;4.57;;;;;;;18.17;84.48;100223.66;5012180;28;20022;-70
2022/09/30 05:44:24;;;;;;;8.93;4.93;;;;;;;18.09;85.18;100228.88;5011641;28;20507;-71
2022/09/30 05:46:49;;;;;;;9.88;4.95;;;;;;;18.20;84.21;100218.41;5011696;28;20317;-70
2022/09/30 05:49:15;;;;;;;8.18;4.80;;;;;;;18.25;83.46;100210.59;5011965;28;20056;-76
2022/09/30 05:51:40;;;;;;;10.63;4.85;;;;;;;18.19;83.72;100184.44;5011899;28;20034;-73
2022/09/30 05:54:06;;;;;;;8.90;4.53;;;;;;;18.46;83.11;100214.09;5012080;28;20436;-70
2022/09/30 05:56:33;;;;;;;17.75;5.22;;;;;;;18.66;82.54;100229.78;5011662;28;20034;-72
2022/09/30 05:58:59;;;;;;;18.20;10.57;;;;;;;18.81;82.07;100236.75;5011319;28;20428;-72
2022/09/30 06:01:24;;;;;;;31.55;17.60;;;;;;;18.52;82.22;100201.91;5011623;28;20018;-70
2022/09/30 06:03:52;;;;;;;12.85;7.28;;;;;;;18.46;82.92;100203.66;5011848;28;20041;-73
2022/09/30 06:06:20;;;;;;;6.28;4.10;;;;;;;18.78;81.92;100231.50;5011592;28;20026;-73
2022/09/30 06:08:46;;;;;;;12.43;4.53;;;;;;;18.90;81.59;100237.66;5011600;28;20089;-70
2022/09/30 06:11:14;;;;;;;8.23;3.70;;;;;;;18.97;82.09;100242.88;5011165;28;20032;-74
2022/09/30 06:13:40;;;;;;;11.20;4.00;;;;;;;19.09;81.67;100232.41;5011213;28;21066;-73
2022/09/30 06:16:08;;;;;;;6.95;3.72;;;;;;;19.21;81.04;100241.97;5011426;28;20079;-71
2022/09/30 06:18:34;;;;;;;5.82;3.53;;;;;;;19.36;80.96;100249.75;5011356;28;20045;-70
2022/09/30 06:21:02;;;;;;;9.70;4.18;;;;;;;19.53;80.22;100254.09;5011669;28;20022;-73
2022/09/30 06:23:29;;;;;;;7.65;3.90;;;;;;;19.55;79.39;100257.56;5011575;28;20026;-73
2022/09/30 06:25:55;;;;;;;9.38;3.78;;;;;;;19.23;80.59;100227.13;5010878;28;20083;-73
2022/09/30 06:28:21;;;;;;;10.85;4.50;;;;;;;19.39;80.63;100248.91;5011224;28;20030;-73
2022/09/30 06:30:47;;;;;;;7.15;3.45;;;;;;;19.57;80.03;100261.06;5010918;28;20041;-71
2022/09/30 06:33:13;;;;;;;8.00;3.80;;;;;;;19.81;79.63;100264.44;5011097;28;20026;-73
2022/09/30 06:35:42;;;;;;;9.00;4.07;;;;;;;19.96;79.13;100260.91;5011255;28;20038;-74
2022/09/30 06:38:10;;;;;;;5.75;3.17;;;;;;;19.49;80.26;100253.22;5042808;28;20030;-74
2022/09/30 06:40:37;;;;;;;12.02;4.47;;;;;;;19.65;81.03;100264.53;5010607;28;20140;-71
2022/09/30 06:43:03;;;;;;;10.27;6.75;;;;;;;19.72;80.90;100255.75;5011233;28;20483;-70
2022/09/30 06:45:31;;;;;;;6.90;3.60;;;;;;;20.06;78.59;100272.22;5010960;28;20369;-70
2022/09/30 06:48:02;;;;;;;8.20;3.33;;;;;;;20.32;77.04;100269.44;5010988;28;20041;-70
2022/09/30 06:50:31;;;;;;;5.28;3.08;;;;;;;20.38;76.26;100264.16;5010934;28;20173;-77
2022/09/30 06:52:58;;;;;;;7.53;3.08;;;;;;;20.44;75.95;100269.38;5010490;28;20136;-73
2022/09/30 06:55:25;;;;;;;7.80;3.47;;;;;;;20.70;74.60;100268.31;5010672;28;20389;-73
2022/09/30 06:57:51;;;;;;;9.68;3.22;;;;;;;20.83;74.39;100280.47;5010822;28;20037;-71
2022/09/30 07:00:21;;;;;;;9.77;3.53;;;;;;;21.05;72.85;100282.03;5010967;28;20022;-73
2022/09/30 07:02:47;;;;;;;10.93;3.30;;;;;;;21.24;72.23;100282.72;5010972;28;20408;-74
2022/09/30 07:05:14;;;;;;;5.70;2.90;;;;;;;21.41;71.78;100283.44;5010657;28;20036;-71
2022/09/30 07:07:41;;;;;;;6.65;2.80;;;;;;;21.31;72.44;100281.78;5010225;28;20112;-73
2022/09/30 07:10:06;;;;;;;8.38;3.35;;;;;;;21.45;71.87;100281.66;5010828;28;20022;-75
2022/09/30 07:12:33;;;;;;;8.23;3.10;;;;;;;21.72;71.38;100277.88;5010830;28;20038;-77
2022/09/30 07:14:59;;;;;;;22.60;12.38;;;;;;;21.86;70.64;100280.31;5010927;28;20069;-71
2022/09/30 07:17:27;;;;;;;19.33;10.07;;;;;;;21.88;70.29;100275.03;5010437;28;20115;-73
2022/09/30 07:19:53;;;;;;;8.45;4.03;;;;;;;21.90;69.87;100249.59;5010891;28;20420;-73
2022/09/30 07:22:33;;;;;;;9.18;3.72;;;;;;;22.26;70.48;100287.66;5010008;28;20026;-73
2022/09/30 07:25:00;;;;;;;8.05;3.30;;;;;;;22.50;71.08;100296.09;5013658;28;20092;-72
2022/09/30 07:27:31;;;;;;;9.32;3.38;;;;;;;22.64;71.17;100306.41;5014774;28;20029;-74
2022/09/30 07:29:58;;;;;;;6.63;2.75;;;;;;;22.71;71.55;100294.91;5014694;28;20030;-74
2022/09/30 07:32:23;;;;;;;6.65;2.72;;;;;;;;;;5014356;28;20042;-73
2022/09/30 07:34:49;;;;;;;7.03;2.70;;;;;;;23.05;70.19;100315.41;5014125;28;20029;-73
2022/09/30 07:37:17;;;;;;;7.13;3.25;;;;;;;22.94;70.64;100291.91;5014394;28;20041;-69
2022/09/30 07:39:44;;;;;;;15.05;3.47;;;;;;;23.19;68.95;100307.31;5014370;28;20026;-73
2022/09/30 07:42:11;;;;;;;13.10;3.20;;;;;;;23.03;69.35;100282.06;5014359;28;20049;-70
2022/09/30 07:44:40;;;;;;;8.07;3.10;;;;;;;22.74;69.72;100243.97;5014096;28;20045;-70
2022/09/30 07:47:07;;;;;;;7.72;3.05;;;;;;;22.96;69.89;100297.13;5014222;28;20050;-73
2022/09/30 07:49:35;;;;;;;8.27;3.30;;;;;;;23.05;69.58;100285.56;5014163;28;20064;-71
2022/09/30 07:52:01;;;;;;;7.40;3.30;;;;;;;23.30;69.14;100300.97;5014218;28;20061;-73
2022/09/30 07:54:29;;;;;;;5.80;2.90;;;;;;;23.42;68.76;100317.41;5014155;28;20092;-70
2022/09/30 07:56:56;;;;;;;6.63;2.80;;;;;;;23.58;68.72;100310.06;5014117;28;20029;-73
2022/09/30 07:59:22;;;;;;;8.25;2.63;;;;;;;23.53;68.63;100313.72;5013779;28;20405;-73
2022/09/30 08:01:48;;;;;;;5.53;2.45;;;;;;;23.65;68.34;100309.94;5013958;28;20113;-70
2022/09/30 08:04:15;;;;;;;7.40;3.00;;;;;;;23.72;68.74;100315.06;4995268;28;20117;-73
2022/09/30 08:06:46;;;;;;;6.65;2.80;;;;;;;23.87;67.58;100318.31;5013887;28;20087;-74
2022/09/30 08:09:14;;;;;;;5.75;2.80;;;;;;;23.80;67.33;100288.56;5029244;28;20022;-71
2022/09/30 08:11:41;;;;;;;7.55;2.80;;;;;;;24.15;67.00;100323.91;5013602;28;20037;-74
2022/09/30 08:14:12;;;;;;;8.85;3.05;;;;;;;24.29;66.26;100320.94;5013565;28;20026;-72
2022/09/30 08:16:37;;;;;;;4.93;2.47;;;;;;;24.27;65.80;100328.03;5013834;28;20100;-70
2022/09/30 08:19:03;;;;;;;8.20;2.60;;;;;;;24.29;66.06;100317.44;5013375;28;20109;-70
2022/09/30 08:21:29;;;;;;;8.00;2.58;;;;;;;24.33;66.70;100325.25;5013818;28;20108;-70
2022/09/30 08:23:55;;;;;;;8.32;2.80;;;;;;;24.58;65.27;100322.06;5013407;28;20026;-77
2022/09/30 08:26:21;;;;;;;6.18;2.80;;;;;;;24.35;65.34;100267.16;5012398;28;20022;-74
2022/09/30 08:28:47;;;;;;;9.20;2.55;;;;;;;24.76;65.36;100326.06;5013106;28;20577;-73
2022/09/30 08:31:20;;;;;;;9.07;2.95;;;;;;;24.84;64.63;100323.25;5013393;28;20026;-72
2022/09/30 08:33:46;;;;;;;7.07;2.78;;;;;;;25.03;64.19;100321.00;5013217;28;20590;-73
2022/09/30 08:36:25;;;;;;;9.85;2.92;;;;;;;24.91;63.41;100290.50;5011962;28;20057;-71
2022/09/30 08:38:51;;;;;;;6.40;2.50;;;;;;;24.96;63.83;100317.66;5013406;28;20064;-71
2022/09/30 08:41:38;;;;;;;8.07;2.50;;;;;;;25.08;63.21;100313.81;5013395;28;20065;-75
2022/09/30 08:44:34;;;;;;;7.95;2.97;;;;;;;25.22;63.35;100307.31;5012896;28;20408;-73
2022/09/30 08:47:28;;;;;;;25.27;10.23;;;;;;;25.36;60.83;100318.41;5012925;28;20069;-74
2022/09/30 08:50:18;;;;;;;9.48;4.65;;;;;;;25.59;59.20;100320.41;5013147;28;20089;-71
2022/09/30 08:52:51;;;;;;;5.65;3.83;;;;;;;25.55;58.56;100321.44;5012987;28;20026;-73
2022/09/30 08:55:23;;;;;;;9.70;4.22;;;;;;;25.46;58.79;100321.66;5012900;28;20029;-73
2022/09/30 08:57:50;;;;;;;11.52;3.90;;;;;;;25.28;59.02;100299.22;5012975;28;20548;-74
2022/09/30 09:00:17;;;;;;;6.93;4.57;;;;;;;25.58;58.58;100323.13;5012934;28;20116;-71
2022/09/30 09:02:58;;;;;;;8.55;3.33;;;;;;;25.86;57.13;100309.09;5012610;28;20029;-74
2022/09/30 09:06:01;;;;;;;7.32;3.42;;;;;;;26.03;55.92;100322.69;5012705;28;20062;-75
2022/09/30 09:08:38;;;;;;;12.45;5.60;;;;;;;25.72;56.94;100320.06;5012340;28;20381;-73
2022/09/30 09:11:16;;;;;;;6.07;3.22;;;;;;;25.72;56.70;100320.97;5012958;28;20034;-77
2022/09/30 09:14:25;;;;;;;6.70;3.38;;;;;;;26.02;56.12;100318.34;5012676;28;20100;-74
2022/09/30 09:17:18;;;;;;;8.75;4.00;;;;;;;26.21;53.41;100315.19;4975351;28;20486;-74
2022/09/30 09:20:07;;;;;;;5.88;2.42;;;;;;;26.35;52.88;100315.59;4971107;28;20050;-74
2022/09/30 09:22:36;;;;;;;5.72;2.85;;;;;;;26.14;53.82;100280.97;4913667;29;20063;-77
2022/09/30 09:25:02;;;;;;;6.63;3.87;;;;;;;26.32;51.88;100308.63;4913444;29;20162;-75
2022/09/30 09:27:52;;;;;;;7.80;4.50;;;;;;;26.47;51.63;100317.00;4913434;29;20052;-75
2022/09/30 09:30:28;;;;;;;8.23;4.32;;;;;;;26.67;51.27;100281.94;4913864;29;20035;-72
2022/09/30 09:32:57;;;;;;;4.68;2.75;;;;;;;27.02;50.26;100314.34;4913342;29;20063;-73
2022/09/30 09:35:34;;;;;;;7.65;3.33;;;;;;;26.96;50.43;100310.13;4913153;29;20032;-73
2022/09/30 09:38:27;;;;;;;5.78;2.97;;;;;;;27.04;50.54;100307.22;4913357;29;20122;-70
2022/09/30 09:41:20;;;;;;;12.52;3.13;;;;;;;27.19;48.63;100304.94;4913116;29;20404;-73
2022/09/30 09:43:57;;;;;;;7.20;3.10;;;;;;;26.99;49.13;100308.28;4913109;29;20043;-69
2022/09/30 09:46:41;;;;;;;5.68;3.00;;;;;;;27.03;48.76;100309.91;4913036;29;20036;-70
2022/09/30 09:49:12;;;;;;;7.00;2.75;;;;;;;27.23;48.49;100312.75;4912937;29;20100;-70
2022/09/30 09:51:46;;;;;;;6.72;3.40;;;;;;;27.43;48.34;100311.22;4913182;29;20048;-70
2022/09/30 09:54:12;;;;;;;6.78;2.75;;;;;;;27.40;47.67;100314.84;4950056;29;20105;-72
2022/09/30 09:56:38;;;;;;;7.95;3.28;;;;;;;27.29;47.87;100312.53;4950907;29;20714;-71
2022/09/30 09:59:13;;;;;;;8.52;3.10;;;;;;;27.29;48.42;100317.84;4968760;28;20048;-72
2022/09/30 10:01:52;;;;;;;6.32;2.78;;;;;;;27.65;46.40;100315.72;5011880;28;20040;-74
2022/09/30 10:04:23;;;;;;;6.50;3.20;;;;;;;27.72;46.83;100311.94;5011694;28;20026;-74
2022/09/30 10:07:10;;;;;;;5.53;3.40;;;;;;;27.90;45.53;100316.56;5011329;28;20066;-70
2022/09/30 10:09:38;;;;;;;9.60;3.95;;;;;;;28.08;46.05;100314.16;5048562;28;20037;-70
2022/09/30 10:12:06;;;;;;;5.97;3.00;;;;;;;27.96;44.98;100311.94;5048855;28;20037;-73
2022/09/30 10:14:34;;;;;;;7.18;2.75;;;;;;;27.59;45.51;100320.34;5048580;28;20523;-73
2022/09/30 10:17:01;;;;;;;6.93;3.10;;;;;;;27.86;44.29;100311.41;5048671;28;20025;-76
2022/09/30 10:19:30;;;;;;;8.27;2.97;;;;;;;28.11;43.71;100306.06;5048670;28;20068;-70
2022/09/30 10:22:17;;;;;;;7.63;3.10;;;;;;;28.32;42.91;100309.66;5048513;28;20123;-73
2022/09/30 10:24:43;;;;;;;8.35;3.05;;;;;;;28.61;41.50;100310.28;5048635;28;20063;-74
2022/09/30 10:27:29;;;;;;;5.47;2.80;;;;;;;28.73;41.97;100307.16;5048514;28;20483;-71
2022/09/30 10:29:57;;;;;;;3.30;2.55;;;;;;;28.47;41.96;100297.56;5048291;28;20047;-70
2022/09/30 10:32:24;;;;;;;7.93;2.92;;;;;;;28.25;42.95;100298.44;5048299;28;20029;-70
2022/09/30 10:35:15;;;;;;;5.45;2.40;;;;;;;28.43;41.95;100297.78;5048398;28;20116;-70
2022/09/30 10:37:52;;;;;;;4.88;2.72;;;;;;;28.33;42.91;100302.59;5048884;28;20036;-73
2022/09/30 10:40:21;;;;;;;7.20;2.60;;;;;;;28.32;40.45;100303.50;5034730;28;20042;-76
2022/09/30 10:42:47;;;;;;;7.80;3.78;;;;;;;28.52;38.80;100284.97;5011588;28;20033;-72
2022/09/30 10:45:20;;;;;;;4.13;2.58;;;;;;;29.00;38.01;100292.78;5011469;28;20068;-70
2022/09/30 10:47:49;;;;;;;7.10;2.95;;;;;;;29.28;38.06;100300.41;5011518;28;20062;-71
2022/09/30 10:50:20;;;;;;;4.72;2.45;;;;;;;28.73;38.66;100298.31;5011303;28;20415;-70
2022/09/30 10:52:54;;;;;;;4.93;2.65;;;;;;;28.88;39.09;100295.00;5011244;28;20072;-73
2022/09/30 10:55:19;;;;;;;8.68;3.10;;;;;;;29.05;40.76;100294.31;5011455;28;20026;-74
2022/09/30 10:57:45;;;;;;;5.57;2.92;;;;;;;28.81;39.05;100285.59;5010764;28;20048;-77
2022/09/30 11:00:24;;;;;;;4.18;2.70;;;;;;;28.64;38.53;100299.53;5010885;28;20389;-70
2022/09/30 11:03:02;;;;;;;3.38;2.40;;;;;;;28.73;38.30;100304.50;5011065;28;20412;-70
2022/09/30 11:05:34;;;;;;;5.15;2.58;;;;;;;28.89;38.59;100287.94;5011342;28;20209;-73
2022/09/30 11:08:12;;;;;;;3.88;2.45;;;;;;;29.08;36.89;100282.69;5011389;28;20143;-70
2022/09/30 11:10:43;;;;;;;5.78;2.40;;;;;;;28.86;36.80;100259.69;5011150;28;20480;-72
2022/09/30 11:13:15;;;;;;;3.70;2.30;;;;;;;29.07;38.39;100294.22;5011155;28;20025;-75
2022/09/30 11:16:07;;;;;;;3.72;2.35;;;;;;;29.41;36.43;100282.16;5011161;28;20053;-77
2022/09/30 11:18:52;;;;;;;20.88;3.50;;;;;;;29.69;36.25;100286.22;5011087;28;20041;-70
2022/09/30 11:21:37;;;;;;;7.03;2.80;;;;;;;29.69;36.45;100292.41;5011191;28;20451;-75
2022/09/30 11:24:14;;;;;;;4.75;2.40;;;;;;;29.63;36.08;100289.16;5010846;28;20092;-73
2022/09/30 11:27:04;;;;;;;3.30;2.63;;;;;;;29.70;35.91;100286.16;5011106;28;20030;-70
2022/09/30 11:29:54;;;;;;;6.55;2.53;;;;;;;29.34;35.37;100294.00;5010880;28;20034;-73
2022/09/30 11:32:29;;;;;;;4.88;2.80;;;;;;;29.40;35.72;100283.09;5010752;28;20025;-73
2022/09/30 11:35:06;;;;;;;4.10;2.75;;;;;;;29.61;37.48;100294.56;5010661;28;20473;-71
2022/09/30 11:37:53;;;;;;;5.10;2.60;;;;;;;29.68;36.21;100292.47;5010790;28;20030;-77
2022/09/30 11:40:55;;;;;;;5.35;2.70;;;;;;;29.67;33.79;100269.47;5010760;28;20412;-74
2022/09/30 11:43:23;;;;;;;5.78;2.58;;;;;;;29.83;33.91;100294.44;5010689;28;20018;-70
2022/09/30 11:46:08;;;;;;;5.00;2.20;;;;;;;29.77;33.61;100294.72;5011042;28;20065;-72
2022/09/30 11:48:51;;;;;;;6.63;2.17;;;;;;;29.93;33.45;100286.06;5010544;28;20564;-73